sensor_id;sensor_type;location;lat;lon;timestamp;P1;durP1;ratioP1;P2;durP2;ratioP2
24305;SDS011;12423;48.768;8.850;2023-05-15T00:00:56;389.10;;;364.25;;
24305;SDS011;12423;48.768;8.850;2023-05-15T00:02:57;371.20;;;347.48;;
24305;SDS011;12423;48.768;8.850;2023-05-15T00:04:58;391.05;;;365.00;;
24305;SDS011;12423;48.768;8.850;2023-05-15T00:06:59;352.80;;;326.98;;
24305;SDS011;12423;48.768;8.850;2023-05-15T00:09:00;384.98;;;358.77;;
24305;SDS011;12423;48.768;8.850;2023-05-15T00:11:01;358.17;;;332.77;;
24305;SDS011;12423;48.768;8.850;2023-05-15T00:13:03;380.55;;;355.73;;
24305;SDS011;12423;48.768;8.850;2023-05-15T00:15:04;376.50;;;350.95;;
24305;SDS011;12423;48.768;8.850;2023-05-15T00:17:05;409.58;;;382.08;;
24305;SDS011;12423;48.768;8.850;2023-05-15T00:19:07;392.80;;;366.20;;
24305;SDS011;12423;48.768;8.850;2023-05-15T00:21:08;399.55;;;372.42;;
24305;SDS011;12423;48.768;8.850;2023-05-15T00:23:09;393.33;;;365.60;;
24305;SDS011;12423;48.768;8.850;2023-05-15T00:25:11;364.42;;;339.85;;
24305;SDS011;12423;48.768;8.850;2023-05-15T00:27:12;387.02;;;361.42;;
24305;SDS011;12423;48.768;8.850;2023-05-15T00:29:13;354.80;;;329.63;;
24305;SDS011;12423;48.768;8.850;2023-05-15T00:31:14;351.75;;;326.48;;
24305;SDS011;12423;48.768;8.850;2023-05-15T00:33:16;387.52;;;361.63;;
24305;SDS011;12423;48.768;8.850;2023-05-15T00:35:17;293.08;;;271.13;;
24305;SDS011;12423;48.768;8.850;2023-05-15T00:37:18;113.68;;;103.97;;
24305;SDS011;12423;48.768;8.850;2023-05-15T00:39:19;369.02;;;345.65;;
24305;SDS011;12423;48.768;8.850;2023-05-15T00:41:21;399.48;;;372.98;;
24305;SDS011;12423;48.768;8.850;2023-05-15T00:43:23;400.33;;;373.52;;
24305;SDS011;12423;48.768;8.850;2023-05-15T00:45:25;339.80;;;315.88;;
24305;SDS011;12423;48.768;8.850;2023-05-15T00:47:28;393.10;;;366.52;;
24305;SDS011;12423;48.768;8.850;2023-05-15T00:49:30;344.85;;;320.40;;
24305;SDS011;12423;48.768;8.850;2023-05-15T00:51:32;366.27;;;340.45;;
24305;SDS011;12423;48.768;8.850;2023-05-15T00:53:33;386.25;;;359.25;;
24305;SDS011;12423;48.768;8.850;2023-05-15T00:55:34;359.52;;;332.60;;
24305;SDS011;12423;48.768;8.850;2023-05-15T00:57:36;406.60;;;378.48;;
24305;SDS011;12423;48.768;8.850;2023-05-15T00:59:38;402.73;;;375.13;;
24305;SDS011;12423;48.768;8.850;2023-05-15T01:01:40;386.48;;;360.48;;
24305;SDS011;12423;48.768;8.850;2023-05-15T01:03:41;358.23;;;332.13;;
24305;SDS011;12423;48.768;8.850;2023-05-15T01:05:43;391.67;;;365.15;;
24305;SDS011;12423;48.768;8.850;2023-05-15T01:07:48;404.17;;;375.73;;
24305;SDS011;12423;48.768;8.850;2023-05-15T01:09:52;382.75;;;354.92;;
24305;SDS011;12423;48.768;8.850;2023-05-15T01:11:53;399.30;;;371.30;;
24305;SDS011;12423;48.768;8.850;2023-05-15T01:13:57;387.90;;;358.70;;
24305;SDS011;12423;48.768;8.850;2023-05-15T01:15:58;428.27;;;396.52;;
24305;SDS011;12423;48.768;8.850;2023-05-15T01:17:59;391.45;;;361.95;;
24305;SDS011;12423;48.768;8.850;2023-05-15T01:20:00;449.25;;;413.67;;
24305;SDS011;12423;48.768;8.850;2023-05-15T01:22:24;459.05;;;419.60;;
24305;SDS011;12423;48.768;8.850;2023-05-15T01:24:52;467.85;;;424.77;;
24305;SDS011;12423;48.768;8.850;2023-05-15T01:29:22;392.85;;;364.75;;
24305;SDS011;12423;48.768;8.850;2023-05-15T01:31:27;418.48;;;390.23;;
24305;SDS011;12423;48.768;8.850;2023-05-15T01:33:33;347.88;;;323.83;;
24305;SDS011;12423;48.768;8.850;2023-05-15T01:35:46;395.38;;;369.52;;
24305;SDS011;12423;48.768;8.850;2023-05-15T01:37:55;371.80;;;346.88;;
24305;SDS011;12423;48.768;8.850;2023-05-15T01:40:09;359.00;;;334.00;;
24305;SDS011;12423;48.768;8.850;2023-05-15T01:42:12;407.35;;;379.17;;
24305;SDS011;12423;48.768;8.850;2023-05-15T01:44:17;469.60;;;426.10;;
24305;SDS011;12423;48.768;8.850;2023-05-15T01:46:20;421.27;;;390.90;;
24305;SDS011;12423;48.768;8.850;2023-05-15T01:48:24;401.13;;;371.88;;
24305;SDS011;12423;48.768;8.850;2023-05-15T01:50:26;421.35;;;391.48;;
24305;SDS011;12423;48.768;8.850;2023-05-15T01:52:28;462.63;;;431.38;;
24305;SDS011;12423;48.768;8.850;2023-05-15T01:54:32;441.85;;;410.13;;
24305;SDS011;12423;48.768;8.850;2023-05-15T01:56:34;333.40;;;313.02;;
24305;SDS011;12423;48.768;8.850;2023-05-15T01:58:37;211.73;;;200.93;;
24305;SDS011;12423;48.768;8.850;2023-05-15T02:00:40;358.45;;;335.00;;
24305;SDS011;12423;48.768;8.850;2023-05-15T02:02:42;394.77;;;367.98;;
24305;SDS011;12423;48.768;8.850;2023-05-15T02:04:44;292.50;;;276.10;;
24305;SDS011;12423;48.768;8.850;2023-05-15T02:06:46;348.58;;;326.65;;
24305;SDS011;12423;48.768;8.850;2023-05-15T02:08:50;400.70;;;372.83;;
24305;SDS011;12423;48.768;8.850;2023-05-15T02:10:51;379.25;;;351.50;;
24305;SDS011;12423;48.768;8.850;2023-05-15T02:12:53;440.55;;;407.17;;
24305;SDS011;12423;48.768;8.850;2023-05-15T02:14:55;383.33;;;353.08;;
24305;SDS011;12423;48.768;8.850;2023-05-15T02:16:57;390.42;;;358.70;;
24305;SDS011;12423;48.768;8.850;2023-05-15T02:18:58;359.55;;;335.25;;
24305;SDS011;12423;48.768;8.850;2023-05-15T02:21:00;373.58;;;349.23;;
24305;SDS011;12423;48.768;8.850;2023-05-15T02:23:02;352.27;;;331.42;;
24305;SDS011;12423;48.768;8.850;2023-05-15T02:25:03;367.98;;;345.15;;
24305;SDS011;12423;48.768;8.850;2023-05-15T02:27:21;366.27;;;343.75;;
24305;SDS011;12423;48.768;8.850;2023-05-15T02:29:35;300.83;;;281.88;;
24305;SDS011;12423;48.768;8.850;2023-05-15T02:31:38;317.85;;;297.73;;
24305;SDS011;12423;48.768;8.850;2023-05-15T02:33:55;351.05;;;328.67;;
24305;SDS011;12423;48.768;8.850;2023-05-15T02:36:01;388.75;;;360.92;;
24305;SDS011;12423;48.768;8.850;2023-05-15T02:38:07;384.23;;;357.67;;
24305;SDS011;12423;48.768;8.850;2023-05-15T02:40:11;404.85;;;375.00;;
24305;SDS011;12423;48.768;8.850;2023-05-15T02:42:13;337.90;;;314.75;;
24305;SDS011;12423;48.768;8.850;2023-05-15T02:44:14;393.65;;;366.33;;
24305;SDS011;12423;48.768;8.850;2023-05-15T02:46:17;396.48;;;366.38;;
24305;SDS011;12423;48.768;8.850;2023-05-15T02:48:19;443.20;;;409.88;;
24305;SDS011;12423;48.768;8.850;2023-05-15T02:50:20;429.25;;;398.05;;
24305;SDS011;12423;48.768;8.850;2023-05-15T02:52:23;405.63;;;376.63;;
24305;SDS011;12423;48.768;8.850;2023-05-15T02:54:24;375.63;;;350.02;;
24305;SDS011;12423;48.768;8.850;2023-05-15T02:56:25;371.55;;;345.27;;
24305;SDS011;12423;48.768;8.850;2023-05-15T02:58:26;306.73;;;287.35;;
24305;SDS011;12423;48.768;8.850;2023-05-15T03:00:28;344.75;;;322.60;;
24305;SDS011;12423;48.768;8.850;2023-05-15T03:02:29;348.50;;;325.55;;
24305;SDS011;12423;48.768;8.850;2023-05-15T03:04:30;359.42;;;336.85;;
24305;SDS011;12423;48.768;8.850;2023-05-15T03:06:31;336.50;;;316.15;;
24305;SDS011;12423;48.768;8.850;2023-05-15T03:08:32;335.20;;;315.25;;
24305;SDS011;12423;48.768;8.850;2023-05-15T03:10:33;407.48;;;379.00;;
24305;SDS011;12423;48.768;8.850;2023-05-15T03:12:35;363.33;;;339.60;;
24305;SDS011;12423;48.768;8.850;2023-05-15T03:14:36;299.38;;;282.65;;
24305;SDS011;12423;48.768;8.850;2023-05-15T03:16:37;368.23;;;345.52;;
24305;SDS011;12423;48.768;8.850;2023-05-15T03:18:38;315.95;;;297.05;;
24305;SDS011;12423;48.768;8.850;2023-05-15T03:20:39;346.40;;;325.95;;
24305;SDS011;12423;48.768;8.850;2023-05-15T03:22:41;351.58;;;331.00;;
24305;SDS011;12423;48.768;8.850;2023-05-15T03:24:42;392.95;;;368.17;;
24305;SDS011;12423;48.768;8.850;2023-05-15T03:26:43;391.80;;;366.55;;
24305;SDS011;12423;48.768;8.850;2023-05-15T03:28:45;405.52;;;379.40;;
24305;SDS011;12423;48.768;8.850;2023-05-15T03:30:46;402.25;;;376.02;;
24305;SDS011;12423;48.768;8.850;2023-05-15T03:32:47;421.15;;;391.02;;
24305;SDS011;12423;48.768;8.850;2023-05-15T03:34:48;451.52;;;420.65;;
24305;SDS011;12423;48.768;8.850;2023-05-15T03:36:49;460.55;;;426.05;;
24305;SDS011;12423;48.768;8.850;2023-05-15T03:38:50;436.38;;;399.75;;
24305;SDS011;12423;48.768;8.850;2023-05-15T03:40:51;363.42;;;340.85;;
24305;SDS011;12423;48.768;8.850;2023-05-15T03:42:53;404.60;;;378.15;;
24305;SDS011;12423;48.768;8.850;2023-05-15T03:44:54;394.17;;;369.02;;
24305;SDS011;12423;48.768;8.850;2023-05-15T03:46:56;406.10;;;378.52;;
24305;SDS011;12423;48.768;8.850;2023-05-15T03:48:57;361.35;;;336.30;;
24305;SDS011;12423;48.768;8.850;2023-05-15T03:50:58;416.63;;;386.55;;
24305;SDS011;12423;48.768;8.850;2023-05-15T03:52:59;434.70;;;404.35;;
24305;SDS011;12423;48.768;8.850;2023-05-15T03:55:00;461.77;;;427.05;;
24305;SDS011;12423;48.768;8.850;2023-05-15T03:57:01;401.65;;;375.25;;
24305;SDS011;12423;48.768;8.850;2023-05-15T03:59:04;403.90;;;376.60;;
24305;SDS011;12423;48.768;8.850;2023-05-15T04:01:05;433.52;;;403.73;;
24305;SDS011;12423;48.768;8.850;2023-05-15T04:03:07;392.90;;;364.95;;
24305;SDS011;12423;48.768;8.850;2023-05-15T04:05:08;445.90;;;414.88;;
24305;SDS011;12423;48.768;8.850;2023-05-15T04:07:09;380.52;;;356.02;;
24305;SDS011;12423;48.768;8.850;2023-05-15T04:09:11;398.80;;;372.85;;
24305;SDS011;12423;48.768;8.850;2023-05-15T04:11:12;401.23;;;370.95;;
24305;SDS011;12423;48.768;8.850;2023-05-15T04:13:13;430.48;;;399.60;;
24305;SDS011;12423;48.768;8.850;2023-05-15T04:15:21;400.90;;;370.92;;
24305;SDS011;12423;48.768;8.850;2023-05-15T04:17:23;437.02;;;402.13;;
24305;SDS011;12423;48.768;8.850;2023-05-15T04:19:24;408.73;;;378.15;;
24305;SDS011;12423;48.768;8.850;2023-05-15T04:21:26;385.38;;;360.58;;
24305;SDS011;12423;48.768;8.850;2023-05-15T04:23:27;449.88;;;417.35;;
24305;SDS011;12423;48.768;8.850;2023-05-15T04:25:28;386.25;;;361.45;;
24305;SDS011;12423;48.768;8.850;2023-05-15T04:27:29;410.48;;;383.15;;
24305;SDS011;12423;48.768;8.850;2023-05-15T04:29:30;409.08;;;381.02;;
24305;SDS011;12423;48.768;8.850;2023-05-15T04:31:32;429.85;;;400.50;;
24305;SDS011;12423;48.768;8.850;2023-05-15T04:33:34;389.35;;;361.20;;
24305;SDS011;12423;48.768;8.850;2023-05-15T04:35:35;396.65;;;370.15;;
24305;SDS011;12423;48.768;8.850;2023-05-15T04:37:37;383.20;;;356.80;;
24305;SDS011;12423;48.768;8.850;2023-05-15T04:39:38;446.80;;;414.95;;
24305;SDS011;12423;48.768;8.850;2023-05-15T04:41:39;431.13;;;402.25;;
24305;SDS011;12423;48.768;8.850;2023-05-15T04:43:41;409.63;;;380.70;;
24305;SDS011;12423;48.768;8.850;2023-05-15T04:45:42;445.30;;;414.42;;
24305;SDS011;12423;48.768;8.850;2023-05-15T04:47:43;370.38;;;346.65;;
24305;SDS011;12423;48.768;8.850;2023-05-15T04:49:44;393.60;;;367.85;;
24305;SDS011;12423;48.768;8.850;2023-05-15T04:51:47;410.33;;;383.02;;
24305;SDS011;12423;48.768;8.850;2023-05-15T04:53:48;463.27;;;430.42;;
24305;SDS011;12423;48.768;8.850;2023-05-15T04:55:49;430.67;;;399.35;;
24305;SDS011;12423;48.768;8.850;2023-05-15T04:57:51;432.05;;;403.58;;
24305;SDS011;12423;48.768;8.850;2023-05-15T04:59:52;403.67;;;377.80;;
24305;SDS011;12423;48.768;8.850;2023-05-15T05:01:53;438.98;;;410.48;;
24305;SDS011;12423;48.768;8.850;2023-05-15T05:03:54;469.25;;;434.45;;
24305;SDS011;12423;48.768;8.850;2023-05-15T05:05:55;461.60;;;428.55;;
24305;SDS011;12423;48.768;8.850;2023-05-15T05:07:56;433.85;;;403.55;;
24305;SDS011;12423;48.768;8.850;2023-05-15T05:09:58;469.33;;;437.52;;
24305;SDS011;12423;48.768;8.850;2023-05-15T05:11:59;430.75;;;403.02;;
24305;SDS011;12423;48.768;8.850;2023-05-15T05:14:01;383.92;;;360.60;;
24305;SDS011;12423;48.768;8.850;2023-05-15T05:16:03;354.48;;;333.35;;
24305;SDS011;12423;48.768;8.850;2023-05-15T05:18:04;410.88;;;383.67;;
24305;SDS011;12423;48.768;8.850;2023-05-15T05:20:05;463.05;;;430.20;;
24305;SDS011;12423;48.768;8.850;2023-05-15T05:22:10;453.38;;;419.13;;
24305;SDS011;12423;48.768;8.850;2023-05-15T05:24:11;452.90;;;420.20;;
24305;SDS011;12423;48.768;8.850;2023-05-15T05:26:12;338.63;;;319.70;;
24305;SDS011;12423;48.768;8.850;2023-05-15T05:28:13;428.95;;;402.73;;
24305;SDS011;12423;48.768;8.850;2023-05-15T05:30:14;206.25;;;194.70;;
24305;SDS011;12423;48.768;8.850;2023-05-15T05:32:15;203.82;;;192.02;;
24305;SDS011;12423;48.768;8.850;2023-05-15T05:34:17;257.85;;;242.70;;
24305;SDS011;12423;48.768;8.850;2023-05-15T05:36:19;332.55;;;311.80;;
24305;SDS011;12423;48.768;8.850;2023-05-15T05:38:20;262.27;;;247.07;;
24305;SDS011;12423;48.768;8.850;2023-05-15T05:40:21;304.88;;;285.73;;
24305;SDS011;12423;48.768;8.850;2023-05-15T05:42:22;368.02;;;345.65;;
24305;SDS011;12423;48.768;8.850;2023-05-15T05:44:23;281.95;;;265.20;;
24305;SDS011;12423;48.768;8.850;2023-05-15T05:46:25;191.10;;;180.15;;
24305;SDS011;12423;48.768;8.850;2023-05-15T05:48:26;147.57;;;139.73;;
24305;SDS011;12423;48.768;8.850;2023-05-15T05:50:27;89.75;;;84.45;;
24305;SDS011;12423;48.768;8.850;2023-05-15T05:52:29;39.10;;;36.30;;
24305;SDS011;12423;48.768;8.850;2023-05-15T05:54:30;30.98;;;28.83;;
24305;SDS011;12423;48.768;8.850;2023-05-15T05:56:31;58.35;;;54.50;;
24305;SDS011;12423;48.768;8.850;2023-05-15T05:58:32;29.13;;;26.58;;
24305;SDS011;12423;48.768;8.850;2023-05-15T06:00:33;27.42;;;25.23;;
24305;SDS011;12423;48.768;8.850;2023-05-15T06:02:35;13.10;;;9.98;;
24305;SDS011;12423;48.768;8.850;2023-05-15T06:04:37;30.58;;;28.25;;
24305;SDS011;12423;48.768;8.850;2023-05-15T06:06:38;10.52;;;6.80;;
24305;SDS011;12423;48.768;8.850;2023-05-15T06:08:40;9.77;;;6.22;;
24305;SDS011;12423;48.768;8.850;2023-05-15T06:10:41;10.45;;;6.03;;
24305;SDS011;12423;48.768;8.850;2023-05-15T06:12:43;8.38;;;4.90;;
24305;SDS011;12423;48.768;8.850;2023-05-15T06:14:44;8.57;;;5.20;;
24305;SDS011;12423;48.768;8.850;2023-05-15T06:16:45;12.00;;;5.20;;
24305;SDS011;12423;48.768;8.850;2023-05-15T06:18:46;7.72;;;4.53;;
24305;SDS011;12423;48.768;8.850;2023-05-15T06:20:48;8.00;;;4.78;;
24305;SDS011;12423;48.768;8.850;2023-05-15T06:22:49;10.82;;;5.80;;
24305;SDS011;12423;48.768;8.850;2023-05-15T06:24:50;8.68;;;4.90;;
24305;SDS011;12423;48.768;8.850;2023-05-15T06:26:51;9.63;;;5.22;;
24305;SDS011;12423;48.768;8.850;2023-05-15T06:28:52;9.13;;;5.47;;
24305;SDS011;12423;48.768;8.850;2023-05-15T06:30:53;9.15;;;5.07;;
24305;SDS011;12423;48.768;8.850;2023-05-15T06:32:54;8.52;;;5.00;;
24305;SDS011;12423;48.768;8.850;2023-05-15T06:34:55;14.70;;;6.72;;
24305;SDS011;12423;48.768;8.850;2023-05-15T06:36:57;230.90;;;217.70;;
24305;SDS011;12423;48.768;8.850;2023-05-15T06:38:58;10.13;;;6.75;;
24305;SDS011;12423;48.768;8.850;2023-05-15T06:40:59;48.80;;;45.75;;
24305;SDS011;12423;48.768;8.850;2023-05-15T06:43:00;10.35;;;6.22;;
24305;SDS011;12423;48.768;8.850;2023-05-15T06:45:01;88.05;;;82.93;;
24305;SDS011;12423;48.768;8.850;2023-05-15T06:47:03;22.00;;;20.20;;
24305;SDS011;12423;48.768;8.850;2023-05-15T06:49:04;37.60;;;35.28;;
24305;SDS011;12423;48.768;8.850;2023-05-15T06:51:05;48.58;;;45.55;;
24305;SDS011;12423;48.768;8.850;2023-05-15T06:53:06;78.35;;;73.75;;
24305;SDS011;12423;48.768;8.850;2023-05-15T06:55:08;9.77;;;5.18;;
24305;SDS011;12423;48.768;8.850;2023-05-15T06:57:09;8.60;;;5.20;;
24305;SDS011;12423;48.768;8.850;2023-05-15T06:59:10;9.77;;;7.47;;
24305;SDS011;12423;48.768;8.850;2023-05-15T07:01:11;24.92;;;22.70;;
24305;SDS011;12423;48.768;8.850;2023-05-15T07:03:13;10.30;;;6.28;;
24305;SDS011;12423;48.768;8.850;2023-05-15T07:05:16;11.30;;;10.18;;
24305;SDS011;12423;48.768;8.850;2023-05-15T07:07:17;140.88;;;132.10;;
24305;SDS011;12423;48.768;8.850;2023-05-15T07:09:18;10.05;;;5.10;;
24305;SDS011;12423;48.768;8.850;2023-05-15T07:11:19;61.47;;;57.80;;
24305;SDS011;12423;48.768;8.850;2023-05-15T07:13:20;36.17;;;33.88;;
24305;SDS011;12423;48.768;8.850;2023-05-15T07:15:21;82.47;;;76.43;;
24305;SDS011;12423;48.768;8.850;2023-05-15T07:17:22;290.95;;;271.98;;
24305;SDS011;12423;48.768;8.850;2023-05-15T07:19:24;144.50;;;136.90;;
24305;SDS011;12423;48.768;8.850;2023-05-15T07:21:25;323.38;;;304.33;;
24305;SDS011;12423;48.768;8.850;2023-05-15T07:23:26;339.38;;;317.63;;
24305;SDS011;12423;48.768;8.850;2023-05-15T07:25:27;250.25;;;236.57;;
24305;SDS011;12423;48.768;8.850;2023-05-15T07:27:28;107.60;;;101.15;;
24305;SDS011;12423;48.768;8.850;2023-05-15T07:29:29;635.53;;;596.97;;
24305;SDS011;12423;48.768;8.850;2023-05-15T07:31:31;17.15;;;15.45;;
24305;SDS011;12423;48.768;8.850;2023-05-15T07:33:33;11.27;;;6.93;;
24305;SDS011;12423;48.768;8.850;2023-05-15T07:35:34;105.03;;;99.40;;
24305;SDS011;12423;48.768;8.850;2023-05-15T07:37:35;399.35;;;374.17;;
24305;SDS011;12423;48.768;8.850;2023-05-15T07:39:36;125.00;;;118.45;;
24305;SDS011;12423;48.768;8.850;2023-05-15T07:41:37;55.08;;;51.80;;
24305;SDS011;12423;48.768;8.850;2023-05-15T07:43:38;119.38;;;113.05;;
24305;SDS011;12423;48.768;8.850;2023-05-15T07:45:39;183.27;;;169.70;;
24305;SDS011;12423;48.768;8.850;2023-05-15T07:47:44;89.50;;;84.07;;
24305;SDS011;12423;48.768;8.850;2023-05-15T07:49:46;89.68;;;84.93;;
24305;SDS011;12423;48.768;8.850;2023-05-15T07:51:47;53.88;;;50.58;;
24305;SDS011;12423;48.768;8.850;2023-05-15T07:53:48;59.25;;;55.55;;
24305;SDS011;12423;48.768;8.850;2023-05-15T07:55:50;39.13;;;35.83;;
24305;SDS011;12423;48.768;8.850;2023-05-15T07:57:51;14.57;;;9.90;;
24305;SDS011;12423;48.768;8.850;2023-05-15T07:59:52;592.25;;;557.90;;
24305;SDS011;12423;48.768;8.850;2023-05-15T08:01:53;49.30;;;44.90;;
24305;SDS011;12423;48.768;8.850;2023-05-15T08:03:54;48.30;;;45.05;;
24305;SDS011;12423;48.768;8.850;2023-05-15T08:05:57;65.60;;;61.33;;
24305;SDS011;12423;48.768;8.850;2023-05-15T08:07:59;89.47;;;83.50;;
24305;SDS011;12423;48.768;8.850;2023-05-15T08:10:00;663.67;;;622.53;;
24305;SDS011;12423;48.768;8.850;2023-05-15T08:12:13;77.57;;;72.03;;
24305;SDS011;12423;48.768;8.850;2023-05-15T08:14:20;15.50;;;11.20;;
24305;SDS011;12423;48.768;8.850;2023-05-15T08:16:21;630.58;;;590.42;;
24305;SDS011;12423;48.768;8.850;2023-05-15T08:18:22;540.13;;;509.35;;
24305;SDS011;12423;48.768;8.850;2023-05-15T08:20:23;154.48;;;145.55;;
24305;SDS011;12423;48.768;8.850;2023-05-15T08:22:24;702.80;;;659.25;;
24305;SDS011;12423;48.768;8.850;2023-05-15T08:24:25;701.20;;;657.33;;
24305;SDS011;12423;48.768;8.850;2023-05-15T08:26:26;39.00;;;35.78;;
24305;SDS011;12423;48.768;8.850;2023-05-15T08:28:28;10.95;;;5.93;;
24305;SDS011;12423;48.768;8.850;2023-05-15T08:30:29;9.63;;;5.05;;
24305;SDS011;12423;48.768;8.850;2023-05-15T08:32:30;9.63;;;4.70;;
24305;SDS011;12423;48.768;8.850;2023-05-15T08:34:31;9.60;;;4.82;;
24305;SDS011;12423;48.768;8.850;2023-05-15T08:36:32;7.78;;;3.88;;
24305;SDS011;12423;48.768;8.850;2023-05-15T08:38:33;7.95;;;3.97;;
24305;SDS011;12423;48.768;8.850;2023-05-15T08:40:34;10.10;;;5.10;;
24305;SDS011;12423;48.768;8.850;2023-05-15T08:44:54;9.50;;;4.70;;
24305;SDS011;12423;48.768;8.850;2023-05-15T08:46:55;7.22;;;4.20;;
24305;SDS011;12423;48.768;8.850;2023-05-15T08:48:57;8.55;;;4.53;;
24305;SDS011;12423;48.768;8.850;2023-05-15T08:50:59;10.77;;;5.20;;
24305;SDS011;12423;48.768;8.850;2023-05-15T08:53:01;9.27;;;4.35;;
24305;SDS011;12423;48.768;8.850;2023-05-15T08:55:02;7.88;;;4.10;;
24305;SDS011;12423;48.768;8.850;2023-05-15T08:57:04;9.57;;;4.57;;
24305;SDS011;12423;48.768;8.850;2023-05-15T08:59:05;9.77;;;4.38;;
24305;SDS011;12423;48.768;8.850;2023-05-15T09:01:06;12.50;;;4.72;;
24305;SDS011;12423;48.768;8.850;2023-05-15T09:03:12;7.70;;;4.22;;
24305;SDS011;12423;48.768;8.850;2023-05-15T09:05:14;8.40;;;4.13;;
24305;SDS011;12423;48.768;8.850;2023-05-15T09:07:16;10.60;;;5.47;;
24305;SDS011;12423;48.768;8.850;2023-05-15T09:09:17;12.15;;;5.63;;
24305;SDS011;12423;48.768;8.850;2023-05-15T09:11:18;9.20;;;4.75;;
24305;SDS011;12423;48.768;8.850;2023-05-15T09:13:21;10.40;;;4.72;;
24305;SDS011;12423;48.768;8.850;2023-05-15T09:15:23;9.43;;;4.82;;
24305;SDS011;12423;48.768;8.850;2023-05-15T09:17:24;7.55;;;4.40;;
24305;SDS011;12423;48.768;8.850;2023-05-15T09:19:25;9.02;;;4.75;;
24305;SDS011;12423;48.768;8.850;2023-05-15T09:21:28;8.15;;;4.63;;
24305;SDS011;12423;48.768;8.850;2023-05-15T09:23:31;8.85;;;4.80;;
24305;SDS011;12423;48.768;8.850;2023-05-15T09:27:41;8.82;;;3.92;;
24305;SDS011;12423;48.768;8.850;2023-05-15T09:29:43;8.63;;;4.70;;
24305;SDS011;12423;48.768;8.850;2023-05-15T09:31:45;12.38;;;7.20;;
24305;SDS011;12423;48.768;8.850;2023-05-15T09:33:47;10.32;;;4.72;;
24305;SDS011;12423;48.768;8.850;2023-05-15T09:35:59;9.48;;;5.05;;
24305;SDS011;12423;48.768;8.850;2023-05-15T09:38:02;10.95;;;6.78;;
24305;SDS011;12423;48.768;8.850;2023-05-15T09:40:10;9.65;;;5.55;;
24305;SDS011;12423;48.768;8.850;2023-05-15T09:42:13;8.25;;;5.88;;
24305;SDS011;12423;48.768;8.850;2023-05-15T09:44:18;11.15;;;6.60;;
24305;SDS011;12423;48.768;8.850;2023-05-15T09:46:24;13.93;;;6.20;;
24305;SDS011;12423;48.768;8.850;2023-05-15T09:48:25;12.98;;;6.85;;
24305;SDS011;12423;48.768;8.850;2023-05-15T09:50:37;10.30;;;6.28;;
24305;SDS011;12423;48.768;8.850;2023-05-15T09:52:40;9.05;;;4.57;;
24305;SDS011;12423;48.768;8.850;2023-05-15T09:54:43;12.48;;;7.13;;
24305;SDS011;12423;48.768;8.850;2023-05-15T09:56:46;11.35;;;5.47;;
24305;SDS011;12423;48.768;8.850;2023-05-15T09:58:54;10.05;;;5.43;;
24305;SDS011;12423;48.768;8.850;2023-05-15T10:00:56;9.30;;;4.88;;
24305;SDS011;12423;48.768;8.850;2023-05-15T10:03:02;8.65;;;4.95;;
24305;SDS011;12423;48.768;8.850;2023-05-15T10:05:04;7.43;;;4.30;;
24305;SDS011;12423;48.768;8.850;2023-05-15T10:07:06;12.13;;;6.75;;
24305;SDS011;12423;48.768;8.850;2023-05-15T10:09:09;7.82;;;3.85;;
24305;SDS011;12423;48.768;8.850;2023-05-15T10:11:10;11.73;;;4.75;;
24305;SDS011;12423;48.768;8.850;2023-05-15T10:13:11;8.45;;;4.63;;
24305;SDS011;12423;48.768;8.850;2023-05-15T10:15:13;9.82;;;4.97;;
24305;SDS011;12423;48.768;8.850;2023-05-15T10:17:14;9.75;;;5.22;;
24305;SDS011;12423;48.768;8.850;2023-05-15T10:19:17;11.15;;;5.38;;
24305;SDS011;12423;48.768;8.850;2023-05-15T10:21:19;9.65;;;5.10;;
24305;SDS011;12423;48.768;8.850;2023-05-15T10:23:22;7.25;;;3.92;;
24305;SDS011;12423;48.768;8.850;2023-05-15T10:27:50;9.50;;;5.28;;
24305;SDS011;12423;48.768;8.850;2023-05-15T10:29:51;10.25;;;5.47;;
24305;SDS011;12423;48.768;8.850;2023-05-15T10:31:53;8.23;;;3.78;;
24305;SDS011;12423;48.768;8.850;2023-05-15T10:33:54;8.95;;;4.22;;
24305;SDS011;12423;48.768;8.850;2023-05-15T10:35:56;10.40;;;5.35;;
24305;SDS011;12423;48.768;8.850;2023-05-15T10:37:58;9.65;;;4.85;;
24305;SDS011;12423;48.768;8.850;2023-05-15T10:40:00;5.57;;;3.08;;
24305;SDS011;12423;48.768;8.850;2023-05-15T10:42:02;6.55;;;3.35;;
24305;SDS011;12423;48.768;8.850;2023-05-15T10:44:04;5.22;;;2.75;;
24305;SDS011;12423;48.768;8.850;2023-05-15T10:46:05;7.22;;;3.42;;
24305;SDS011;12423;48.768;8.850;2023-05-15T10:48:07;7.07;;;3.78;;
24305;SDS011;12423;48.768;8.850;2023-05-15T10:50:11;8.25;;;3.03;;
24305;SDS011;12423;48.768;8.850;2023-05-15T10:52:14;7.25;;;3.67;;
24305;SDS011;12423;48.768;8.850;2023-05-15T10:54:15;6.50;;;3.40;;
24305;SDS011;12423;48.768;8.850;2023-05-15T10:56:16;7.47;;;3.50;;
24305;SDS011;12423;48.768;8.850;2023-05-15T10:58:24;7.93;;;3.22;;
24305;SDS011;12423;48.768;8.850;2023-05-15T11:00:25;5.85;;;3.15;;
24305;SDS011;12423;48.768;8.850;2023-05-15T11:02:28;8.07;;;3.83;;
24305;SDS011;12423;48.768;8.850;2023-05-15T11:04:30;5.60;;;3.03;;
24305;SDS011;12423;48.768;8.850;2023-05-15T11:06:32;9.68;;;3.72;;
24305;SDS011;12423;48.768;8.850;2023-05-15T11:08:35;5.80;;;2.83;;
24305;SDS011;12423;48.768;8.850;2023-05-15T11:10:40;7.45;;;3.63;;
24305;SDS011;12423;48.768;8.850;2023-05-15T11:12:54;5.45;;;2.45;;
24305;SDS011;12423;48.768;8.850;2023-05-15T11:16:57;4.35;;;2.40;;
24305;SDS011;12423;48.768;8.850;2023-05-15T11:18:59;6.68;;;2.60;;
24305;SDS011;12423;48.768;8.850;2023-05-15T11:23:01;6.13;;;3.13;;
24305;SDS011;12423;48.768;8.850;2023-05-15T11:25:07;14.45;;;3.70;;
24305;SDS011;12423;48.768;8.850;2023-05-15T11:27:11;545.58;;;511.38;;
24305;SDS011;12423;48.768;8.850;2023-05-15T11:29:16;505.65;;;475.30;;
24305;SDS011;12423;48.768;8.850;2023-05-15T11:31:18;563.83;;;529.22;;
24305;SDS011;12423;48.768;8.850;2023-05-15T11:33:29;672.63;;;628.38;;
24305;SDS011;12423;48.768;8.850;2023-05-15T11:35:35;581.45;;;544.55;;
24305;SDS011;12423;48.768;8.850;2023-05-15T11:37:45;319.88;;;299.90;;
24305;SDS011;12423;48.768;8.850;2023-05-15T11:39:54;473.10;;;442.10;;
24305;SDS011;12423;48.768;8.850;2023-05-15T11:41:55;409.92;;;382.42;;
24305;SDS011;12423;48.768;8.850;2023-05-15T11:43:56;410.80;;;383.05;;
24305;SDS011;12423;48.768;8.850;2023-05-15T11:46:04;362.45;;;337.65;;
24305;SDS011;12423;48.768;8.850;2023-05-15T11:48:09;350.25;;;325.85;;
24305;SDS011;12423;48.768;8.850;2023-05-15T11:50:12;303.90;;;282.83;;
24305;SDS011;12423;48.768;8.850;2023-05-15T11:52:14;354.45;;;330.15;;
24305;SDS011;12423;48.768;8.850;2023-05-15T11:54:16;285.65;;;265.77;;
24305;SDS011;12423;48.768;8.850;2023-05-15T11:56:21;319.58;;;296.90;;
24305;SDS011;12423;48.768;8.850;2023-05-15T11:58:24;314.13;;;291.90;;
24305;SDS011;12423;48.768;8.850;2023-05-15T12:00:25;264.20;;;246.00;;
24305;SDS011;12423;48.768;8.850;2023-05-15T12:02:27;311.17;;;289.48;;